Main page
METAR-TAF:

METAR-TAF

Airports :

Pau Pyrénées Airport

Pau, France

latitude: 43-23N, longitude: 000-25W, elevation: 188 m

Current weather observation

The report was made 16 minutes ago, at 03:30 UTC
Wind 3 kt from the South/Southwest
Temperature 13°C
Humidity 94%
Pressure 1028 hPa
Visibility 10 km or more
Few clouds at a height of 900 ft

METAR: LFBP 260330Z AUTO 21003KT 9999 FEW009 13/12 Q1028 TEMPO 3000 BR BKN005

Time: 05:46 (03:46 UTC)

Forecast

The report was made 4 hours and 46 minutes ago, at 23:00 UTC
Forecast valid from 26 at 00 UTC to 26 at 24 UTC
Wind 3 kt from variable directions
Visibility 10 km or more
no clouds below 1500 m and no cumulonimbus
Probability 40%
from 26 at 05 UTC to 26 at 08 UTC
Visibility: 3000 m
Broken clouds at a height of 500 ft
mist
Temporary
from 26 at 12 UTC to 26 at 18 UTC
Wind 10 kt from the North

TAF: LFBP 252300Z 2600/2624 VRB03KT CAVOK PROB40 2605/2608 3000 BR BKN005 TEMPO 2612/2618 36010KT

Weather observations and forecasts of more than 4000 airports (METAR and TAF reports).

The available stations are represented by yellow and red dots on the map.

Hover mouse over dot to see the name of the station.

Then click to see weather observations and forecasts.

To change the map : click on the green buttons with a black cross to zoom in, on the green button with a dash to zoom out, or on the green arrows for adjacent maps.


METAR-TAF: